Saturday, July 21, 2018, 3:37 PM EDT
Back to Local

KMQE, Milton Blue Hill Observ

Location: Milton, MA, United States Lat: 42.217
Local Time: 3:37 PM EDT (19:37 GMT) Lon: -71.117
Time Zone: US/Eastern Elev: 629 ft

Show me the last for .
Show Decoded

2018-07-21 14:56 METAR KMQE 211856Z AUTO 09008KT 23/15 A3013 RMK AO1 SLP212 T02330150 =
2018-07-21 13:56 METAR KMQE 211756Z AUTO 11007KT 25/14 A3015 RMK AO1 SLP216 T02500144 10250 20189
                 58008 =
2018-07-21 12:56 METAR KMQE 211656Z AUTO 09008KT 23/14 A3016 RMK AO1 SLP222 T02280144 =
2018-07-21 11:56 METAR KMQE 211556Z AUTO 10010G17KT 23/13 A3016 RMK AO1 SLP221 T02330133 =
2018-07-21 10:56 METAR KMQE 211456Z AUTO VRB06KT 23/13 A3017 RMK AO1 SLP224 T02280133 50002 =
2018-07-21 09:56 METAR KMQE 211356Z AUTO 14007KT 22/12 A3017 RMK AO1 SLP225 T02170117 =
2018-07-21 08:56 METAR KMQE 211256Z AUTO 10005KT 21/11 A3017 RMK AO1 SLP225 T02060111 =
2018-07-21 06:56 METAR KMQE 211056Z AUTO 00000KT 18/06 A3016 RMK AO1 SLP221 T01780056 =
2018-07-21 05:56 METAR KMQE 210956Z AUTO 19005KT 17/05 A3016 RMK AO1 SLP220 T01720050 =
2018-07-21 04:56 METAR KMQE 210856Z AUTO 19008KT 17/09 A3016 RMK AO1 SLP220 T01670094 53001 =
2018-07-21 03:56 METAR KMQE 210756Z AUTO 16008KT 15/13 A3016 RMK AO1 SLP219 T01500128 =
2018-07-21 02:56 METAR KMQE 210656Z AUTO 17007KT 16/13 A3016 RMK AO1 SLP219 T01560133 =
2018-07-21 01:56 METAR KMQE 210556Z AUTO 17008KT 16/13 A3016 RMK AO1 SLP219 T01610133 10217 20161
                 56004 =
2018-07-21 00:56 METAR KMQE 210456Z AUTO 18009KT 17/13 A3016 RMK AO1 SLP220 T01670133 402780167 =
2018-07-20 23:56 METAR KMQE 210356Z AUTO 17008KT 17/14 A3016 RMK AO1 SLP221 T01720144 =
2018-07-20 22:56 METAR KMQE 210256Z AUTO 16008KT 18/15 A3017 RMK AO1 SLP223 T01780150 51005 =
2018-07-20 21:56 METAR KMQE 210156Z AUTO 17008KT 19/15 A3017 RMK AO1 SLP223 T01940150 =
2018-07-20 20:56 METAR KMQE 210056Z AUTO 17008KT 21/15 A3016 RMK AO1 SLP221 T02060150 =
2018-07-20 19:56 METAR KMQE 202356Z AUTO 16007KT 22/16 A3015 RMK AO1 SLP217 T02170156 10278 20217
                 55000 =
2018-07-20 18:56 METAR KMQE 202256Z AUTO 16005KT 23/16 A3015 RMK AO1 SLP218 T02280161 =
2018-07-20 17:56 METAR KMQE 202156Z AUTO 12010G15KT 25/13 A3015 RMK AO1 SLP216 T02500133 =
2018-07-20 16:56 METAR KMQE 202056Z AUTO 11008G14KT 26/14 A3015 RMK AO1 SLP217 T02610139 57005 =
2018-07-20 15:56 METAR KMQE 201956Z AUTO 11011G16KT 27/13 A3015 RMK AO1 SLP218 T02670128 =

Support USWX by starting your Amazon purchase here.